Time;durP1;ratioP1;P1;durP2;ratioP2;P2;SDS_P1;SDS_P2;PMS_P1;PMS_P2;Temp;Humidity;BMP_temperature;BMP_pressure;BME280_temperature;BME280_humidity;BME280_pressure;Samples;Min_cycle;Max_cycle;Signal;HPM_P1;HPM_P2
2023/05/29 00:00:13;;;;;;;32.37;5.60;;;;;;;;;;5031006;28;20522;-61
2023/05/29 00:02:39;;;;;;;27.40;5.43;;;;;;;;;;5030560;28;20583;-61
2023/05/29 00:05:05;;;;;;;27.90;5.53;;;;;;;;;;5029964;28;20049;-62
2023/05/29 00:07:35;;;;;;;32.20;5.40;;;;;;;;;;5029991;28;20099;-61
2023/05/29 00:10:01;;;;;;;28.73;5.47;;;;;;;;;;5029434;28;20042;-61
2023/05/29 00:12:27;;;;;;;23.67;5.57;;;;;;;;;;5029503;28;20114;-61
2023/05/29 00:14:53;;;;;;;32.20;5.97;;;;;;;;;;5029831;28;20488;-61
2023/05/29 00:17:20;;;;;;;45.90;7.13;;;;;;;;;;5029653;28;20099;-61
2023/05/29 00:19:46;;;;;;;29.37;5.50;;;;;;;;;;5028849;28;20125;-61
2023/05/29 00:22:12;;;;;;;22.13;5.43;;;;;;;;;;5029580;28;20128;-61
2023/05/29 00:24:38;;;;;;;21.13;5.47;;;;;;;;;;5029512;28;20041;-61
2023/05/29 00:27:04;;;;;;;31.20;5.27;;;;;;;;;;5029374;28;20045;-61
2023/05/29 00:29:30;;;;;;;28.07;5.60;;;;;;;;;;5029603;28;20551;-61
2023/05/29 00:31:56;;;;;;;27.97;5.53;;;;;;;;;;5043992;28;20057;-61
2023/05/29 00:34:23;;;;;;;30.07;6.43;;;;;;;;;;5049645;28;20063;-61
2023/05/29 00:36:49;;;;;;;28.43;5.20;;;;;;;;;;5049275;28;20098;-61
2023/05/29 00:39:15;;;;;;;33.47;6.40;;;;;;;;;;5049150;28;20044;-61
2023/05/29 00:41:41;;;;;;;27.47;5.97;;;;;;;;;;5048717;28;20041;-62
2023/05/29 00:44:07;;;;;;;30.50;5.43;;;;;;;;;;5049177;28;20064;-61
2023/05/29 00:46:33;;;;;;;29.50;5.70;;;;;;;;;;5048614;28;20048;-61
2023/05/29 00:49:01;;;;;;;25.83;6.00;;;;;;;;;;5049161;28;20045;-61
2023/05/29 00:51:28;;;;;;;36.37;5.47;;;;;;;;;;5049302;28;20044;-61
2023/05/29 00:53:54;;;;;;;27.33;6.13;;;;;;;;;;5049071;28;20041;-62
2023/05/29 00:56:21;;;;;;;27.63;6.20;;;;;;;;;;5048589;28;20415;-61
2023/05/29 00:58:48;;;;;;;32.87;5.50;;;;;;;;;;5048025;28;20415;-61
2023/05/29 01:01:14;;;;;;;30.70;5.47;;;;;;;;;;5029195;28;20428;-62
2023/05/29 01:03:41;;;;;;;24.80;5.37;;;;;;;;;;5027551;28;20060;-61
2023/05/29 01:06:07;;;;;;;29.67;5.40;;;;;;;;;;5028623;28;20084;-61
2023/05/29 01:08:33;;;;;;;27.23;4.97;;;;;;;;;;5028724;28;20048;-61
2023/05/29 01:11:13;;;;;;;36.00;6.97;;;;;;;;;;5028438;28;20165;-61
2023/05/29 01:13:42;;;;;;;30.83;6.53;;;;;;;;;;5028366;28;20496;-61
2023/05/29 01:16:12;;;;;;;32.90;5.97;;;;;;;;;;5028534;28;20111;-61
2023/05/29 01:18:47;;;;;;;29.53;6.00;;;;;;;;;;5028624;28;20049;-61
2023/05/29 01:21:13;;;;;;;19.43;5.73;;;;;;;;;;5028265;28;20432;-61
2023/05/29 01:23:45;;;;;;;29.57;5.73;;;;;;;;;;5029249;28;20054;-61
2023/05/29 01:26:25;;;;;;;28.37;6.33;;;;;;;;;;5048242;28;20435;-61
2023/05/29 01:28:52;;;;;;;26.77;7.80;;;;;;;;;;5047116;28;20427;-61
2023/05/29 01:31:21;;;;;;;33.23;5.97;;;;;;;;;;5048004;28;20045;-61
2023/05/29 01:33:56;;;;;;;30.77;6.70;;;;;;;;;;5046462;28;20053;-61
2023/05/29 01:36:24;;;;;;;31.50;6.70;;;;;;;;;;5028272;28;20053;-61
2023/05/29 01:38:51;;;;;;;29.27;6.97;;;;;;;;;;5028334;28;20140;-61
2023/05/29 01:41:18;;;;;;;31.57;6.10;;;;;;;;;;5028621;28;20446;-61
2023/05/29 01:43:45;;;;;;;28.77;5.97;;;;;;;;;;5028671;28;20042;-61
2023/05/29 01:46:12;;;;;;;29.70;5.47;;;;;;;;;;5027708;28;20250;-61
2023/05/29 01:48:39;;;;;;;25.07;6.00;;;;;;;;;;5032960;28;20067;-62
2023/05/29 01:51:05;;;;;;;34.53;6.23;;;;;;;;;;5030316;28;20107;-61
2023/05/29 01:53:31;;;;;;;27.27;4.47;;;;;;;;;;5035448;28;20087;-61
2023/05/29 01:55:57;;;;;;;22.73;5.57;;;;;;;;;;5028407;28;20045;-61
2023/05/29 01:58:23;;;;;;;29.90;6.47;;;;;;;;;;5041190;28;20575;-61
2023/05/29 02:00:50;;;;;;;21.97;4.53;;;;;;;;;;5047650;28;20433;-61
2023/05/29 02:03:16;;;;;;;30.17;5.90;;;;;;;;;;5048327;28;20360;-62
2023/05/29 02:05:42;;;;;;;26.67;5.70;;;;;;;;;;5047571;28;20044;-61
2023/05/29 02:08:08;;;;;;;26.00;5.47;;;;;;;;;;5048265;28;20499;-61
2023/05/29 02:10:34;;;;;;;28.10;6.47;;;;;;;;;;5048061;28;20099;-61
2023/05/29 02:13:00;;;;;;;32.60;6.20;;;;;;;;;;5048465;28;20059;-61
2023/05/29 02:15:26;;;;;;;30.67;5.17;;;;;;;;;;5051874;28;20041;-61
2023/05/29 02:17:52;;;;;;;30.00;4.80;;;;;;;;;;5051581;28;20135;-61
2023/05/29 02:20:18;;;;;;;25.53;6.30;;;;;;;;;;5051905;28;20518;-61
2023/05/29 02:22:45;;;;;;;30.60;6.23;;;;;;;;;;5050690;28;20052;-61
2023/05/29 02:25:11;;;;;;;21.37;4.77;;;;;;;;;;5051740;28;20534;-61
2023/05/29 02:27:37;;;;;;;27.03;5.57;;;;;;;;;;5050616;28;20466;-61
2023/05/29 02:30:05;;;;;;;29.13;5.67;;;;;;;;;;5051972;28;20045;-62
2023/05/29 02:32:31;;;;;;;21.93;5.17;;;;;;;;;;5051744;28;20065;-61
2023/05/29 02:34:57;;;;;;;22.87;4.50;;;;;;;;;;5051299;28;20057;-61
2023/05/29 02:37:25;;;;;;;26.83;6.57;;;;;;;;;;5051220;28;20045;-61
2023/05/29 02:39:52;;;;;;;26.20;5.63;;;;;;;;;;5051783;28;20060;-62
2023/05/29 02:42:18;;;;;;;26.40;5.00;;;;;;;;;;5051215;28;20072;-62
2023/05/29 02:44:44;;;;;;;19.03;4.83;;;;;;;;;;5051113;28;20495;-61
2023/05/29 02:47:10;;;;;;;33.23;7.10;;;;;;;;;;5051452;28;20090;-62
2023/05/29 02:49:36;;;;;;;25.37;7.30;;;;;;;;;;5033329;28;20040;-61
2023/05/29 02:52:02;;;;;;;30.13;6.77;;;;;;;;;;5051435;28;20553;-61
2023/05/29 02:54:28;;;;;;;27.17;5.73;;;;;;;;;;5051253;28;20041;-61
2023/05/29 02:56:54;;;;;;;39.27;5.73;;;;;;;;;;5050159;28;20041;-62
2023/05/29 02:59:20;;;;;;;23.77;5.77;;;;;;;;;;5051393;28;20094;-61
2023/05/29 03:01:47;;;;;;;25.37;6.40;;;;;;;;;;5051009;28;20128;-62
2023/05/29 03:04:13;;;;;;;29.73;6.07;;;;;;;;;;5051268;28;20049;-62
2023/05/29 03:06:40;;;;;;;23.70;5.47;;;;;;;;;;5051005;28;20099;-62
2023/05/29 03:09:06;;;;;;;30.20;6.37;;;;;;;;;;5050557;28;20072;-62
2023/05/29 03:11:32;;;;;;;31.23;5.80;;;;;;;;;;5050815;28;20040;-62
2023/05/29 03:13:58;;;;;;;27.90;6.37;;;;;;;;;;5050764;28;20045;-62
2023/05/29 03:16:25;;;;;;;27.50;5.87;;;;;;;;;;5050833;28;20101;-62
2023/05/29 03:18:51;;;;;;;29.30;8.60;;;;;;;;;;5050137;28;20511;-62
2023/05/29 03:21:17;;;;;;;32.27;5.27;;;;;;;;;;5050709;28;20415;-61
2023/05/29 03:23:43;;;;;;;26.90;6.43;;;;;;;;;;5050499;28;20076;-61
2023/05/29 03:26:12;;;;;;;27.30;7.27;;;;;;;;;;5050245;28;20049;-63
2023/05/29 03:28:38;;;;;;;33.43;6.10;;;;;;;;;;5047981;28;20052;-63
2023/05/29 03:31:04;;;;;;;26.00;6.03;;;;;;;;;;5050594;28;20041;-62
2023/05/29 03:33:30;;;;;;;27.13;5.90;;;;;;;;;;5050238;28;20053;-62
2023/05/29 03:35:56;;;;;;;27.93;6.43;;;;;;;;;;5049901;28;20490;-62
2023/05/29 03:38:24;;;;;;;39.03;8.70;;;;;;;;;;5049690;28;20076;-62
2023/05/29 03:40:50;;;;;;;21.23;5.80;;;;;;;;;;5046396;28;20104;-62
2023/05/29 03:43:16;;;;;;;28.63;7.03;;;;;;;;;;5029500;28;20046;-62
2023/05/29 03:45:42;;;;;;;34.33;8.50;;;;;;;;;;5028892;28;20046;-62
2023/05/29 03:48:08;;;;;;;27.17;8.67;;;;;;;;;;5029958;28;20041;-63
2023/05/29 03:50:34;;;;;;;30.37;7.30;;;;;;;;;;5029441;28;20518;-62
2023/05/29 03:53:00;;;;;;;35.43;6.60;;;;;;;;;;5029845;28;20101;-62
2023/05/29 03:55:28;;;;;;;21.20;5.43;;;;;;;;;;5029914;28;20143;-62
2023/05/29 03:57:54;;;;;;;32.40;6.03;;;;;;;;;;5029809;28;20508;-62
2023/05/29 04:00:20;;;;;;;36.73;5.97;;;;;;;;;;5030100;28;20046;-62
2023/05/29 04:02:46;;;;;;;35.17;6.17;;;;;;;;;;5029590;28;20049;-62
2023/05/29 04:05:12;;;;;;;26.03;6.57;;;;;;;;;;5029441;28;20076;-63
2023/05/29 04:07:38;;;;;;;33.67;6.37;;;;;;;;;;5029518;28;20416;-62
2023/05/29 04:10:06;;;;;;;29.43;5.83;;;;;;;;;;5029803;28;20510;-62
2023/05/29 04:12:32;;;;;;;34.10;7.07;;;;;;;;;;5029839;28;20115;-63
2023/05/29 04:14:58;;;;;;;30.40;7.50;;;;;;;;;;5029548;28;20041;-62
2023/05/29 04:17:24;;;;;;;29.10;6.63;;;;;;;;;;5029179;28;20049;-62
2023/05/29 04:19:50;;;;;;;22.00;6.50;;;;;;;;;;5029396;28;20053;-63
2023/05/29 04:22:16;;;;;;;30.83;6.97;;;;;;;;;;5029442;28;20132;-63
2023/05/29 04:24:42;;;;;;;31.33;7.07;;;;;;;;;;5029409;28;20057;-63
2023/05/29 04:27:12;;;;;;;33.30;8.20;;;;;;;;;;5029017;28;20126;-62
2023/05/29 04:29:40;;;;;;;27.40;6.83;;;;;;;;;;5032850;28;20041;-62
2023/05/29 04:32:08;;;;;;;31.80;6.10;;;;;;;;;;5048768;28;20068;-63
2023/05/29 04:34:34;;;;;;;32.40;6.77;;;;;;;;;;5044212;28;20504;-63
2023/05/29 04:37:00;;;;;;;29.90;6.73;;;;;;;;;;5027760;28;20045;-63
2023/05/29 04:39:26;;;;;;;30.03;6.60;;;;;;;;;;5028145;28;20700;-63
2023/05/29 04:41:53;;;;;;;31.93;7.23;;;;;;;;;;5029123;28;20050;-63
2023/05/29 04:44:19;;;;;;;31.80;6.50;;;;;;;;;;5029039;28;20162;-63
2023/05/29 04:46:46;;;;;;;32.37;7.77;;;;;;;;;;5035182;28;20107;-63
2023/05/29 04:49:13;;;;;;;29.70;7.00;;;;;;;;;;5048759;28;20402;-63
2023/05/29 04:51:42;;;;;;;30.40;6.83;;;;;;;;;;5048693;28;20500;-63
2023/05/29 04:54:11;;;;;;;37.40;6.93;;;;;;;;;;5048333;28;20086;-63
2023/05/29 04:56:40;;;;;;;33.80;8.40;;;;;;;;;;5048310;28;20048;-63
2023/05/29 04:59:09;;;;;;;25.57;7.00;;;;;;;;;;5047422;28;20127;-63
2023/05/29 05:01:35;;;;;;;33.97;8.00;;;;;;;;;;5033706;28;20041;-63
2023/05/29 05:04:01;;;;;;;28.87;7.47;;;;;;;;;;5027064;28;20041;-63
2023/05/29 05:06:27;;;;;;;13.83;4.13;;;;;;;;;;5028929;28;20046;-63
2023/05/29 05:08:53;;;;;;;30.07;6.43;;;;;;;;;;5028437;28;20084;-62
2023/05/29 05:11:20;;;;;;;33.53;7.67;;;;;;;;;;5028463;28;20518;-62
2023/05/29 05:13:46;;;;;;;27.33;8.00;;;;;;;;;;5044109;28;20519;-63
2023/05/29 05:16:12;;;;;;;25.07;6.77;;;;;;;;;;5047215;28;20036;-63
2023/05/29 05:18:39;;;;;;;26.93;5.47;;;;;;;;;;5044178;28;20102;-63
2023/05/29 05:21:06;;;;;;;32.17;5.80;;;;;;;;;;5047522;28;20056;-63
2023/05/29 05:23:32;;;;;;;24.40;6.90;;;;;;;;;;5048270;28;20491;-63
2023/05/29 05:25:58;;;;;;;22.73;5.13;;;;;;;;;;5047699;28;20041;-63
2023/05/29 05:28:24;;;;;;;24.20;5.73;;;;;;;;;;5042727;28;20037;-63
2023/05/29 05:30:51;;;;;;;22.43;6.93;;;;;;;;;;5036139;28;20090;-63
2023/05/29 05:33:17;;;;;;;27.70;5.67;;;;;;;;;;5044933;28;20515;-63
2023/05/29 05:35:43;;;;;;;25.03;6.00;;;;;;;;;;5047662;28;20053;-63
2023/05/29 05:38:09;;;;;;;34.63;6.83;;;;;;;;;;5047536;28;20037;-63
2023/05/29 05:40:35;;;;;;;24.03;5.53;;;;;;;;;;5047300;28;20475;-63
2023/05/29 05:43:01;;;;;;;21.33;5.50;;;;;;;;;;5047512;28;20037;-63
2023/05/29 05:45:27;;;;;;;26.27;5.60;;;;;;;;;;5047544;28;20092;-63
2023/05/29 05:47:53;;;;;;;24.60;4.83;;;;;;;;;;5047180;28;20077;-63
2023/05/29 05:50:20;;;;;;;18.60;4.47;;;;;;;;;;5046950;28;20052;-61
2023/05/29 05:52:46;;;;;;;30.00;6.03;;;;;;;;;;5039897;28;20049;-60
2023/05/29 05:55:12;;;;;;;20.17;6.07;;;;;;;;;;5051439;28;20048;-61
2023/05/29 05:57:38;;;;;;;25.97;5.20;;;;;;;;;;5051001;28;20458;-61
2023/05/29 06:00:11;;;;;;;22.37;5.13;;;;;;;;;;5050764;28;20132;-61
2023/05/29 06:02:37;;;;;;;19.85;4.47;;;;;;;;;;5049647;28;20051;-61
2023/05/29 06:05:07;;;;;;;25.43;4.90;;;;;;;;;;5038487;28;20128;-61
2023/05/29 06:07:33;;;;;;;21.50;5.73;;;;;;;;;;5051286;28;20085;-61
2023/05/29 06:09:59;;;;;;;25.97;4.90;;;;;;;;;;5041576;28;20038;-61
2023/05/29 06:12:25;;;;;;;21.67;4.10;;;;;;;;;;5039315;28;20045;-61
2023/05/29 06:14:51;;;;;;;22.00;4.07;;;;;;;;;;5030977;28;20767;-61
2023/05/29 06:17:17;;;;;;;18.97;4.10;;;;;;;;;;5031455;28;20076;-61
2023/05/29 06:19:43;;;;;;;22.77;4.23;;;;;;;;;;5031608;28;20077;-61
2023/05/29 06:22:09;;;;;;;22.57;4.80;;;;;;;;;;5031466;28;20056;-61
2023/05/29 06:24:35;;;;;;;34.83;5.43;;;;;;;;;;5037123;28;20053;-61
2023/05/29 06:27:01;;;;;;;19.90;3.40;;;;;;;;;;5050324;28;20052;-61
2023/05/29 06:29:27;;;;;;;16.40;4.67;;;;;;;;;;5046419;28;20517;-61
2023/05/29 06:31:53;;;;;;;15.93;3.77;;;;;;;;;;5040652;28;20223;-61
2023/05/29 06:34:19;;;;;;;20.83;5.00;;;;;;;;;;5051122;28;20737;-62
2023/05/29 06:36:46;;;;;;;29.13;4.30;;;;;;;;;;5049504;28;20056;-62
2023/05/29 06:39:11;;;;;;;19.07;3.90;;;;;;;;;;5050550;28;20049;-61
2023/05/29 06:41:37;;;;;;;17.17;3.47;;;;;;;;;;5049873;28;20094;-61
2023/05/29 06:44:04;;;;;;;24.07;3.87;;;;;;;;;;5050084;28;20467;-62
2023/05/29 06:46:30;;;;;;;16.77;3.83;;;;;;;;;;5048555;28;20080;-62
2023/05/29 06:48:56;;;;;;;19.30;5.23;;;;;;;;;;5045749;28;20092;-62
2023/05/29 06:51:22;;;;;;;22.13;5.03;;;;;;;;;;5036717;28;20041;-61
2023/05/29 06:53:48;;;;;;;19.33;5.30;;;;;;;;;;5050097;28;20048;-61
2023/05/29 06:56:14;;;;;;;18.40;3.40;;;;;;;;;;5043211;28;20045;-61
2023/05/29 06:58:40;;;;;;;15.40;3.90;;;;;;;;;;5045687;28;20087;-61
2023/05/29 07:01:06;;;;;;;15.53;3.30;;;;;;;;;;5048059;28;20118;-61
2023/05/29 07:03:33;;;;;;;16.43;4.10;;;;;;;;;;5036169;28;20475;-61
2023/05/29 07:05:59;;;;;;;19.83;3.50;;;;;;;;;;5039482;28;20044;-61
2023/05/29 07:08:25;;;;;;;16.23;3.80;;;;;;;;;;5049011;28;20044;-61
2023/05/29 07:10:51;;;;;;;21.13;4.43;;;;;;;;;;5048989;28;20045;-61
2023/05/29 07:13:17;;;;;;;17.50;3.43;;;;;;;;;;5049658;28;20052;-61
2023/05/29 07:15:44;;;;;;;13.30;3.47;;;;;;;;;;5048314;28;20053;-62
2023/05/29 07:18:10;;;;;;;13.60;3.20;;;;;;;;;;5036880;28;20048;-62
2023/05/29 07:20:37;;;;;;;13.73;3.17;;;;;;;;;;5046376;28;20048;-62
2023/05/29 07:23:03;;;;;;;18.50;3.83;;;;;;;;;;5049485;28;20407;-62
2023/05/29 07:25:29;;;;;;;19.70;3.40;;;;;;;;;;5050178;28;20064;-61
2023/05/29 07:27:56;;;;;;;14.73;3.20;;;;;;;;;;5048509;28;20041;-62
2023/05/29 07:30:22;;;;;;;20.97;3.47;;;;;;;;;;5034979;28;20046;-61
2023/05/29 07:32:48;;;;;;;16.63;3.53;;;;;;;;;;5046024;28;20081;-61
2023/05/29 07:35:14;;;;;;;12.87;2.90;;;;;;;;;;5044487;28;20183;-62
2023/05/29 07:37:40;;;;;;;16.27;3.73;;;;;;;;;;5028975;28;20049;-61
2023/05/29 07:40:06;;;;;;;18.10;3.50;;;;;;;;;;5028363;28;20048;-62
2023/05/29 07:42:33;;;;;;;14.83;3.60;;;;;;;;;;5029666;28;20049;-62
2023/05/29 07:44:59;;;;;;;12.27;2.93;;;;;;;;;;5029913;28;20056;-61
2023/05/29 07:47:25;;;;;;;20.63;3.73;;;;;;;;;;5029093;28;20107;-62
2023/05/29 07:49:51;;;;;;;14.63;3.43;;;;;;;;;;5048387;28;20602;-62
2023/05/29 07:52:18;;;;;;;12.83;3.17;;;;;;;;;;5049045;28;20040;-61
2023/05/29 07:54:44;;;;;;;17.37;3.60;;;;;;;;;;5049398;28;20519;-61
2023/05/29 07:57:10;;;;;;;13.20;3.33;;;;;;;;;;5032613;28;20041;-61
2023/05/29 07:59:36;;;;;;;15.07;3.63;;;;;;;;;;5048784;28;20080;-61
2023/05/29 08:02:03;;;;;;;19.50;4.00;;;;;;;;;;5048332;28;20431;-61
2023/05/29 08:04:30;;;;;;;17.63;3.53;;;;;;;;;;5046413;28;20048;-61
2023/05/29 08:06:56;;;;;;;15.73;3.43;;;;;;;;;;5040538;28;20261;-61
2023/05/29 08:09:22;;;;;;;12.73;3.33;;;;;;;;;;5037127;28;20037;-61
2023/05/29 08:11:48;;;;;;;11.03;2.93;;;;;;;;;;5047154;28;20049;-61
2023/05/29 08:14:15;;;;;;;24.30;3.87;;;;;;;;;;5046768;28;20088;-61
2023/05/29 08:16:42;;;;;;;14.87;4.17;;;;;;;;;;5037812;28;20041;-61
2023/05/29 08:19:08;;;;;;;13.27;3.80;;;;;;;;;;5033135;28;20570;-61
2023/05/29 08:21:34;;;;;;;16.90;3.80;;;;;;;;;;5035006;28;20049;-61
2023/05/29 08:24:00;;;;;;;16.13;3.60;;;;;;;;;;5047301;28;20510;-61
2023/05/29 08:26:29;;;;;;;14.20;3.37;;;;;;;;;;5047107;28;20048;-61
2023/05/29 08:28:55;;;;;;;16.20;4.07;;;;;;;;;;5035784;28;20116;-61
2023/05/29 08:31:21;;;;;;;16.30;3.10;;;;;;;;;;5027578;28;20050;-61
2023/05/29 08:33:47;;;;;;;13.13;3.67;;;;;;;;;;5030262;28;20052;-61
2023/05/29 08:36:13;;;;;;;14.43;3.33;;;;;;;;;;5048871;28;20056;-61
2023/05/29 08:38:39;;;;;;;14.73;3.63;;;;;;;;;;5047777;28;20388;-61
2023/05/29 08:41:05;;;;;;;11.10;3.37;;;;;;;;;;5034598;28;20151;-61
2023/05/29 08:43:32;;;;;;;17.40;3.63;;;;;;;;;;5029300;28;20045;-61
2023/05/29 08:46:02;;;;;;;13.17;3.20;;;;;;;;;;5038121;28;20045;-61
2023/05/29 08:48:29;;;;;;;15.10;3.77;;;;;;;;;;5033448;28;20042;-61
2023/05/29 08:50:56;;;;;;;16.03;3.90;;;;;;;;;;5049868;28;20045;-61
2023/05/29 08:53:23;;;;;;;17.63;3.80;;;;;;;;;;5041527;28;20435;-61
2023/05/29 08:55:53;;;;;;;15.30;3.80;;;;;;;;;;5039899;28;20049;-61
2023/05/29 08:58:23;;;;;;;18.90;3.93;;;;;;;;;;5038717;28;20038;-61
2023/05/29 09:00:49;;;;;;;14.60;3.40;;;;;;;;;;5028329;28;20054;-61
2023/05/29 09:03:17;;;;;;;12.30;3.23;;;;;;;;;;5029608;28;20053;-61
2023/05/29 09:05:44;;;;;;;11.97;4.30;;;;;;;;;;5030822;28;20041;-62
2023/05/29 09:08:11;;;;;;;15.93;4.03;;;;;;;;;;5028506;28;20085;-61
2023/05/29 09:10:39;;;;;;;13.90;3.90;;;;;;;;;;5038206;28;20511;-61
2023/05/29 09:13:05;;;;;;;15.20;3.37;;;;;;;;;;5048401;28;20084;-61
2023/05/29 09:15:31;;;;;;;15.93;4.00;;;;;;;;;;5046707;28;20052;-61
2023/05/29 09:17:58;;;;;;;14.73;4.03;;;;;;;;;;5046698;28;20041;-61
2023/05/29 09:20:25;;;;;;;15.50;3.70;;;;;;;;;;5048289;28;20434;-61
2023/05/29 09:22:55;;;;;;;12.67;3.90;;;;;;;;;;5047390;28;20743;-61
2023/05/29 09:25:22;;;;;;;13.37;3.53;;;;;;;;;;5048162;28;20037;-61
2023/05/29 09:27:51;;;;;;;12.90;3.73;;;;;;;;;;5043848;28;20040;-61
2023/05/29 09:30:33;;;;;;;12.83;3.70;;;;;;;;;;5037133;28;20041;-61
2023/05/29 09:33:00;;;;;;;9.67;3.10;;;;;;;;;;5046711;28;20084;-61
2023/05/29 09:35:27;;;;;;;13.40;3.63;;;;;;;;;;5048094;28;20060;-61
2023/05/29 09:37:53;;;;;;;15.90;3.87;;;;;;;;;;5047532;28;20040;-61
2023/05/29 09:40:19;;;;;;;11.33;3.83;;;;;;;;;;5047215;28;20394;-61
2023/05/29 09:42:45;;;;;;;13.80;3.80;;;;;;;;;;5047182;28;20150;-61
2023/05/29 09:45:12;;;;;;;14.97;4.50;;;;;;;;;;5046264;28;20041;-61
2023/05/29 09:47:39;;;;;;;17.90;3.67;;;;;;;;;;5045658;28;20105;-61
2023/05/29 09:50:07;;;;;;;12.50;3.37;;;;;;;;;;5047791;28;20087;-62
2023/05/29 09:52:36;;;;;;;16.57;4.67;;;;;;;;;;5042990;28;20042;-61
2023/05/29 09:55:02;;;;;;;16.27;4.10;;;;;;;;;;5039080;28;20045;-61
2023/05/29 09:57:28;;;;;;;17.55;3.33;;;;;;;;;;5041927;28;20045;-61
2023/05/29 09:59:55;;;;;;;17.48;3.88;;;;;;;;;;5042492;28;20427;-62
2023/05/29 10:02:22;;;;;;;12.30;3.45;;;;;;;;;;5047959;28;20048;-61
2023/05/29 10:04:49;;;;;;;13.17;3.70;;;;;;;;;;5052778;28;20415;-61
2023/05/29 10:07:36;;;;;;;15.57;4.43;;;;;;;;;;5048072;28;20045;-61
2023/05/29 10:10:09;;;;;;;12.50;3.70;;;;;;;;;;5046793;28;20172;-61
2023/05/29 10:12:38;;;;;;;18.40;4.05;;;;;;;;;;5032387;28;20060;-61
2023/05/29 10:15:15;;;;;;;13.30;3.10;;;;;;;;;;5027593;28;20106;-61
2023/05/29 10:17:51;;;;;;;10.90;3.95;;;;;;;;;;5027534;28;20041;-61
2023/05/29 10:20:18;;;;;;;13.20;3.70;;;;;;;;;;5040537;28;20069;-61
2023/05/29 10:22:46;;;;;;;9.93;3.42;;;;;;;;;;5046872;28;20033;-61
2023/05/29 10:25:13;;;;;;;11.15;3.13;;;;;;;;;;5047075;28;20144;-61
2023/05/29 10:27:39;;;;;;;13.32;3.25;;;;;;;;;;5046668;28;20098;-62
2023/05/29 10:30:06;;;;;;;12.35;3.80;;;;;;;;;;5045520;28;20168;-61
2023/05/29 10:32:44;;;;;;;10.15;3.42;;;;;;;;;;5029733;28;20060;-62
2023/05/29 10:35:21;;;;;;;8.55;2.88;;;;;;;;;;5038568;28;20055;-61
2023/05/29 10:37:51;;;;;;;13.50;3.70;;;;;;;;;;5044517;28;20128;-61
2023/05/29 10:40:23;;;;;;;13.90;3.85;;;;;;;;;;5042004;28;20118;-61
2023/05/29 10:42:52;;;;;;;11.95;3.67;;;;;;;;;;5049869;28;20041;-61
2023/05/29 10:45:31;;;;;;;13.50;4.50;;;;;;;;;;5050975;28;20067;-61
2023/05/29 10:48:17;;;;;;;17.20;5.50;;;;;;;;;;5050683;28;20132;-62
2023/05/29 10:50:44;;;;;;;10.40;3.58;;;;;;;;;;5049747;28;20052;-62
2023/05/29 10:53:10;;;;;;;13.35;3.53;;;;;;;;;;5047956;28;20045;-61
2023/05/29 10:55:37;;;;;;;11.90;3.13;;;;;;;;;;5036041;28;20128;-62
2023/05/29 10:58:07;;;;;;;15.35;3.78;;;;;;;;;;5038130;28;20161;-62
2023/05/29 11:00:34;;;;;;;14.63;4.57;;;;;;;;;;5050045;28;20045;-61
2023/05/29 11:03:04;;;;;;;11.75;3.95;;;;;;;;;;5049005;28;20049;-62
2023/05/29 11:05:30;;;;;;;13.73;3.78;;;;;;;;;;5042806;28;20045;-61
2023/05/29 11:07:57;;;;;;;12.85;3.92;;;;;;;;;;5048903;28;20097;-62
2023/05/29 11:10:42;;;;;;;12.43;3.75;;;;;;;;;;5050999;28;20044;-61
2023/05/29 11:13:08;;;;;;;10.25;3.30;;;;;;;;;;5049643;28;20053;-61
2023/05/29 11:15:34;;;;;;;11.68;3.53;;;;;;;;;;5050082;28;20092;-61
2023/05/29 11:18:07;;;;;;;15.40;3.90;;;;;;;;;;5049076;28;20033;-61
2023/05/29 11:20:33;;;;;;;12.30;3.53;;;;;;;;;;5049985;28;20079;-62
2023/05/29 11:22:59;;;;;;;12.35;3.88;;;;;;;;;;5048755;28;20044;-61
2023/05/29 11:25:26;;;;;;;13.40;4.10;;;;;;;;;;5049258;28;20052;-61
2023/05/29 11:27:52;;;;;;;14.27;4.38;;;;;;;;;;5033862;28;20049;-62
2023/05/29 11:30:18;;;;;;;13.05;3.50;;;;;;;;;;5049431;28;20053;-62
2023/05/29 11:32:49;;;;;;;10.40;3.53;;;;;;;;;;5049101;28;20507;-62
2023/05/29 11:35:16;;;;;;;13.60;3.55;;;;;;;;;;5048680;28;20099;-61
2023/05/29 11:37:45;;;;;;;12.30;3.47;;;;;;;;;;5048585;28;20040;-61
2023/05/29 11:40:12;;;;;;;11.32;3.90;;;;;;;;;;5049506;28;20090;-62
2023/05/29 11:42:44;;;;;;;14.68;3.00;;;;;;;;;;5049563;28;20094;-62
2023/05/29 11:45:13;;;;;;;15.70;3.95;;;;;;;;;;5049338;28;20048;-61
2023/05/29 11:47:55;;;;;;;11.43;3.13;;;;;;;;;;5047430;28;20048;-63
2023/05/29 11:50:22;;;;;;;18.60;4.00;;;;;;;;;;5048951;28;20068;-63
2023/05/29 11:52:48;;;;;;;13.30;3.55;;;;;;;;;;5049072;28;20638;-63
2023/05/29 11:55:14;;;;;;;12.10;4.10;;;;;;;;;;5049287;28;20132;-62
2023/05/29 11:57:40;;;;;;;15.25;3.42;;;;;;;;;;5047788;28;20175;-63
2023/05/29 12:00:10;;;;;;;8.32;3.03;;;;;;;;;;5049939;28;20063;-63
2023/05/29 12:02:37;;;;;;;10.45;2.95;;;;;;;;;;5040758;28;20045;-63
2023/05/29 12:05:07;;;;;;;12.93;3.72;;;;;;;;;;5041514;28;20076;-63
2023/05/29 12:07:33;;;;;;;10.68;3.63;;;;;;;;;;5049906;28;20101;-63
2023/05/29 12:10:16;;;;;;;12.88;4.18;;;;;;;;;;5030976;28;20046;-62
2023/05/29 12:12:42;;;;;;;12.30;3.40;;;;;;;;;;5045799;28;20048;-63
2023/05/29 12:15:09;;;;;;;14.30;3.78;;;;;;;;;;5043210;28;20479;-62
2023/05/29 12:17:35;;;;;;;10.73;3.25;;;;;;;;;;5047948;28;20403;-62
2023/05/29 12:20:03;;;;;;;9.35;3.10;;;;;;;;;;5049342;28;20468;-62
2023/05/29 12:22:36;;;;;;;10.10;3.20;;;;;;;;;;5049138;28;20067;-62
2023/05/29 12:25:07;;;;;;;10.68;3.28;;;;;;;;;;5049372;28;20068;-62
2023/05/29 12:27:37;;;;;;;12.35;3.17;;;;;;;;;;5047883;28;20575;-62
2023/05/29 12:30:05;;;;;;;13.20;2.80;;;;;;;;;;5046724;28;20049;-62
2023/05/29 12:32:37;;;;;;;9.68;2.72;;;;;;;;;;5048199;28;20155;-63
2023/05/29 12:35:17;;;;;;;13.88;3.75;;;;;;;;;;5046306;28;20180;-63
2023/05/29 12:37:44;;;;;;;6.60;2.90;;;;;;;;;;5038458;28;20186;-62
2023/05/29 12:40:11;;;;;;;9.75;3.40;;;;;;;;;;5048353;28;20048;-62
2023/05/29 12:42:40;;;;;;;9.73;2.90;;;;;;;;;;5044618;28;20067;-62
2023/05/29 12:45:07;;;;;;;12.57;3.53;;;;;;;;;;5042448;28;20084;-62
2023/05/29 12:47:33;;;;;;;8.52;3.42;;;;;;;;;;5046835;28;20124;-62
2023/05/29 12:50:00;;;;;;;13.05;3.50;;;;;;;;;;5048027;28;20052;-63
2023/05/29 12:52:26;;;;;;;9.35;3.30;;;;;;;;;;5048656;28;20044;-62
2023/05/29 12:54:52;;;;;;;10.60;2.88;;;;;;;;;;5048845;28;20529;-63
2023/05/29 12:57:18;;;;;;;9.82;3.42;;;;;;;;;;5048337;28;20076;-63
2023/05/29 12:59:44;;;;;;;10.13;3.42;;;;;;;;;;5048206;28;20053;-62
2023/05/29 13:02:10;;;;;;;11.05;3.15;;;;;;;;;;5048359;28;20049;-63
2023/05/29 13:04:36;;;;;;;13.25;3.47;;;;;;;;;;5046184;28;20048;-63
2023/05/29 13:07:02;;;;;;;12.65;3.25;;;;;;;;;;5048925;28;20049;-63
2023/05/29 13:09:28;;;;;;;10.93;3.88;;;;;;;;;;5046076;28;20049;-63
2023/05/29 13:11:54;;;;;;;12.75;2.97;;;;;;;;;;5028471;28;20100;-63
2023/05/29 13:14:20;;;;;;;7.82;3.03;;;;;;;;;;5028315;28;20041;-63
2023/05/29 13:16:46;;;;;;;9.15;3.67;;;;;;;;;;5028249;28;20053;-63
2023/05/29 13:19:12;;;;;;;12.07;3.65;;;;;;;;;;5028444;28;20049;-63
2023/05/29 13:21:40;;;;;;;14.15;3.78;;;;;;;;;;5028416;28;20570;-63
2023/05/29 13:24:06;;;;;;;11.50;3.53;;;;;;;;;;5027882;28;20045;-63
2023/05/29 13:26:32;;;;;;;11.35;3.25;;;;;;;;;;5028130;28;20432;-63
2023/05/29 13:28:58;;;;;;;11.05;3.03;;;;;;;;;;5028132;28;20058;-63
2023/05/29 13:31:24;;;;;;;14.98;4.07;;;;;;;;;;5028202;28;20061;-63
2023/05/29 13:33:50;;;;;;;11.43;3.10;;;;;;;;;;5028037;28;20079;-62
2023/05/29 13:36:16;;;;;;;14.15;3.60;;;;;;;;;;5031990;28;20097;-63
2023/05/29 13:38:43;;;;;;;10.75;3.38;;;;;;;;;;5047765;28;20472;-63
2023/05/29 13:41:09;;;;;;;10.30;3.00;;;;;;;;;;5048005;28;20048;-62
2023/05/29 13:43:36;;;;;;;14.77;4.05;;;;;;;;;;5047771;28;20115;-62
2023/05/29 13:46:02;;;;;;;11.18;3.65;;;;;;;;;;5047982;28;20135;-62
2023/05/29 13:48:28;;;;;;;11.75;3.28;;;;;;;;;;5047911;28;20049;-62
2023/05/29 13:50:54;;;;;;;10.05;3.10;;;;;;;;;;5046837;28;20048;-62
2023/05/29 13:53:20;;;;;;;9.18;3.00;;;;;;;;;;5047604;28;20053;-62
2023/05/29 13:55:46;;;;;;;10.65;2.92;;;;;;;;;;5035161;28;20068;-62
2023/05/29 13:58:12;;;;;;;10.65;2.88;;;;;;;;;;5036047;28;21207;-62
2023/05/29 14:00:38;;;;;;;14.27;3.35;;;;;;;;;;5043104;28;20045;-62
2023/05/29 14:03:04;;;;;;;8.00;3.05;;;;;;;;;;5033349;28;20219;-62
2023/05/29 14:05:30;;;;;;;9.23;2.78;;;;;;;;;;5045128;28;20132;-62
2023/05/29 14:07:56;;;;;;;11.55;3.17;;;;;;;;;;5047576;28;20511;-62
2023/05/29 14:10:22;;;;;;;9.05;3.20;;;;;;;;;;5041979;28;20442;-62
2023/05/29 14:12:48;;;;;;;9.07;3.40;;;;;;;;;;5052268;28;20056;-62
2023/05/29 14:15:14;;;;;;;9.85;3.08;;;;;;;;;;5051479;28;20110;-62
2023/05/29 14:17:41;;;;;;;12.45;2.97;;;;;;;;;;5051535;28;20404;-62
2023/05/29 14:20:08;;;;;;;6.72;2.70;;;;;;;;;;5050313;28;20049;-62
2023/05/29 14:22:35;;;;;;;10.45;2.22;;;;;;;;;;5051209;28;20041;-62
2023/05/29 14:25:03;;;;;;;8.20;2.75;;;;;;;;;;5051664;28;20052;-62
2023/05/29 14:27:29;;;;;;;7.72;2.65;;;;;;;;;;5046601;28;20123;-62
2023/05/29 14:29:56;;;;;;;8.70;3.03;;;;;;;;;;5031750;28;20048;-62